Time;durP1;ratioP1;P1;durP2;ratioP2;P2;SDS_P1;SDS_P2;PMS_P1;PMS_P2;Temp;Humidity;BMP_temperature;BMP_pressure;BME280_temperature;BME280_humidity;BME280_pressure;Samples;Min_cycle;Max_cycle;Signal;HPM_P1;HPM_P2
2022/01/26 00:09:59;;;;;;;125.30;42.67;;;;;2.60;102821.00;;;;10465695;28;20275;-78
2022/01/26 00:15:03;;;;;;;134.17;46.50;;;;;2.60;102827.00;;;;10483643;28;20204;-78
2022/01/26 00:20:24;;;;;;;122.87;45.30;;;;;2.60;102831.00;;;;10453112;28;20203;-77
2022/01/26 00:26:00;;;;;;;130.53;45.23;;;;;2.60;102831.00;;;;10448807;28;20196;-77
2022/01/26 00:41:57;;;;;;;133.97;46.03;;;;;2.60;102840.00;;;;10448890;28;20206;-77
2022/01/26 00:46:59;;;;;;;116.77;41.27;;;;;2.50;102849.00;;;;10464685;28;20185;-79
2022/01/26 00:52:06;;;;;;;131.63;45.83;;;;;2.50;102837.00;;;;10464760;28;20193;-79
2022/01/26 00:57:08;;;;;;;135.93;46.70;;;;;2.50;102840.00;;;;10423592;28;20214;-80
2022/01/26 01:02:10;;;;;;;131.90;45.87;;;;;2.50;102850.00;;;;10439692;28;20202;-79
2022/01/26 01:07:18;;;;;;;123.17;44.67;;;;;2.50;102854.00;;;;10457454;28;20325;-79
2022/01/26 01:12:20;;;;;;;130.93;44.43;;;;;2.40;102847.00;;;;10473595;28;20189;-79
2022/01/26 01:17:25;;;;;;;127.70;44.87;;;;;2.40;102854.00;;;;10436052;28;20228;-80
2022/01/26 01:22:43;;;;;;;115.70;42.40;;;;;2.30;102844.00;;;;10480887;28;20204;-79
2022/01/26 01:33:10;;;;;;;126.00;45.60;;;;;2.30;102845.00;;;;10479968;28;20278;-79
2022/01/26 01:38:16;;;;;;;123.17;45.33;;;;;2.30;102846.00;;;;10504770;28;20207;-79
2022/01/26 01:43:20;;;;;;;126.93;46.27;;;;;2.30;102831.00;;;;10463165;28;20557;-79
2022/01/26 01:48:28;;;;;;;126.77;48.70;;;;;2.20;102835.00;;;;10479778;28;20200;-80
2022/01/26 01:53:36;;;;;;;126.60;46.50;;;;;2.30;102821.00;;;;10463070;28;20558;-79
2022/01/26 01:58:39;;;;;;;134.27;48.57;;;;;2.30;102812.00;;;;10479516;28;20219;-80
2022/01/26 02:03:41;;;;;;;131.30;47.23;;;;;2.30;102807.00;;;;10446254;28;20217;-80
2022/01/26 02:08:43;;;;;;;128.47;46.20;;;;;2.30;102809.00;;;;10479662;28;20209;-80
2022/01/26 02:19:37;;;;;;;118.60;41.60;;;;;2.30;102802.00;;;;10479394;28;20201;-79
2022/01/26 02:51:27;;;;;;;122.20;45.03;;;;;2.40;102749.00;;;;10445576;28;20657;-79
2022/01/26 03:11:50;;;;;;;108.53;41.60;;;;;2.30;102738.00;;;;10469091;28;20247;-79
2022/01/26 03:16:58;;;;;;;114.20;42.83;;;;;2.40;102722.00;;;;10468296;28;20209;-79
2022/01/26 03:37:49;;;;;;;110.73;42.10;;;;;2.30;102724.00;;;;10484446;28;20866;-79
2022/01/26 03:42:51;;;;;;;113.07;41.90;;;;;2.40;102717.00;;;;10450696;28;20194;-79
2022/01/26 03:47:55;;;;;;;117.97;42.10;;;;;2.30;102723.00;;;;10450798;28;20671;-79
2022/01/26 03:52:56;;;;;;;121.80;44.67;;;;;2.30;102729.00;;;;10500625;28;20190;-79
2022/01/26 03:57:58;;;;;;;120.73;41.20;;;;;2.30;102719.00;;;;10450098;28;20791;-79
2022/01/26 04:03:02;;;;;;;129.17;45.17;;;;;2.40;102725.00;;;;10500244;28;20209;-79
2022/01/26 04:08:12;;;;;;;119.17;44.87;;;;;2.40;102726.00;;;;10482961;28;20715;-79
2022/01/26 04:13:14;;;;;;;124.30;45.33;;;;;2.40;102724.00;;;;10466557;28;20184;-79
2022/01/26 04:18:21;;;;;;;124.77;42.50;;;;;2.40;102728.00;;;;10465686;28;20194;-79
2022/01/26 04:23:36;;;;;;;111.80;38.80;;;;;2.40;102740.00;;;;10482405;28;20201;-79
2022/01/26 04:28:48;;;;;;;110.63;35.17;;;;;2.40;102745.00;;;;10482781;28;20193;-78
2022/01/26 04:33:51;;;;;;;109.33;38.13;;;;;2.40;102747.00;;;;10466167;28;20221;-79
2022/01/26 04:38:57;;;;;;;109.90;37.33;;;;;2.40;102739.00;;;;10465764;28;20216;-78
2022/01/26 04:44:06;;;;;;;101.83;35.23;;;;;2.30;102747.00;;;;10482187;28;20186;-78
2022/01/26 04:49:08;;;;;;;112.07;37.60;;;;;2.30;102771.00;;;;10466041;28;20168;-78
2022/01/26 04:54:11;;;;;;;97.63;32.77;;;;;2.20;102766.00;;;;10481581;28;20672;-79
2022/01/26 04:59:13;;;;;;;111.00;35.03;;;;;2.20;102784.00;;;;10465803;28;20599;-79
2022/01/26 05:04:15;;;;;;;110.90;37.10;;;;;2.10;102773.00;;;;10481764;28;20216;-78
2022/01/26 05:09:20;;;;;;;101.53;37.50;;;;;2.10;102772.00;;;;10498323;28;20217;-79
2022/01/26 05:14:22;;;;;;;123.70;41.47;;;;;2.00;102777.00;;;;10481036;28;20205;-79
2022/01/26 05:19:24;;;;;;;114.73;37.73;;;;;2.00;102782.00;;;;10464955;28;20240;-79
2022/01/26 05:24:26;;;;;;;118.33;37.93;;;;;2.00;102764.00;;;;10464958;28;20197;-79
2022/01/26 05:29:27;;;;;;;113.63;39.60;;;;;2.00;102774.00;;;;10464865;28;20190;-79
2022/01/26 05:34:29;;;;;;;120.33;41.03;;;;;2.00;102802.00;;;;10464734;28;20220;-79
2022/01/26 05:39:32;;;;;;;122.77;40.30;;;;;2.00;102778.00;;;;10464452;28;20207;-79
2022/01/26 05:44:34;;;;;;;121.80;41.17;;;;;2.00;102777.00;;;;10464568;28;20922;-79
2022/01/26 05:49:36;;;;;;;114.60;41.77;;;;;2.00;102778.00;;;;10447401;28;20549;-79
2022/01/26 05:54:38;;;;;;;91.43;30.57;;;;;2.00;102729.00;;;;10480482;28;20279;-79
2022/01/26 05:59:41;;;;;;;117.53;39.17;;;;;1.90;102750.00;;;;10463662;28;20783;-79
2022/01/26 06:04:42;;;;;;;116.00;41.83;;;;;2.00;102750.00;;;;10465543;28;20212;-79
2022/01/26 06:09:44;;;;;;;139.30;43.27;;;;;2.00;102736.00;;;;10505242;28;20220;-79
2022/01/26 06:14:46;;;;;;;128.03;40.40;;;;;2.00;102722.00;;;;10488492;28;20209;-79
2022/01/26 06:19:48;;;;;;;119.27;39.53;;;;;2.00;102756.00;;;;10455431;28;20201;-79
2022/01/26 06:24:50;;;;;;;134.03;40.07;;;;;2.00;102741.00;;;;10471548;28;20198;-79
2022/01/26 06:29:52;;;;;;;116.20;40.37;;;;;2.00;102748.00;;;;10504610;28;20193;-79
2022/01/26 06:34:55;;;;;;;121.30;41.33;;;;;2.00;102751.00;;;;10471150;28;20213;-79
2022/01/26 06:39:57;;;;;;;110.30;42.33;;;;;2.00;102746.00;;;;10471079;28;20205;-79
2022/01/26 06:50:09;;;;;;;127.07;40.90;;;;;2.10;102765.00;;;;10453999;28;20247;-79
2022/01/26 06:55:11;;;;;;;123.67;40.87;;;;;2.10;102738.00;;;;10453444;28;20259;-79
2022/01/26 07:00:14;;;;;;;123.73;40.97;;;;;2.10;102768.00;;;;10470082;28;20193;-79
2022/01/26 07:05:15;;;;;;;123.83;40.07;;;;;2.10;102773.00;;;;10470324;28;20198;-79
2022/01/26 07:10:17;;;;;;;120.83;40.27;;;;;2.10;102780.00;;;;10495100;28;20217;-79
2022/01/26 07:25:46;;;;;;;123.27;41.27;;;;;2.10;102770.00;;;;10511765;28;20192;-78
2022/01/26 07:30:50;;;;;;;121.00;38.83;;;;;2.10;102762.00;;;;10471937;28;20189;-79
2022/01/26 07:35:52;;;;;;;125.73;41.77;;;;;2.10;102763.00;;;;10501324;28;20202;-79
2022/01/26 07:40:54;;;;;;;111.80;39.80;;;;;2.20;102762.00;;;;10443231;28;20233;-79
2022/01/26 07:45:56;;;;;;;123.13;41.73;;;;;2.20;102772.00;;;;10443116;28;20240;-79
2022/01/26 07:50:58;;;;;;;121.70;44.77;;;;;2.20;102816.00;;;;10427412;28;20198;-79
2022/01/26 07:56:01;;;;;;;114.40;38.67;;;;;2.20;102800.00;;;;10443311;28;20214;-78
2022/01/26 08:01:03;;;;;;;116.97;42.97;;;;;2.20;102784.00;;;;10473448;28;20280;-78
2022/01/26 08:06:07;;;;;;;123.30;42.07;;;;;2.20;102784.00;;;;10452453;28;20197;-79
2022/01/26 08:11:09;;;;;;;116.60;43.67;;;;;2.30;102778.00;;;;10466915;28;20218;-79
2022/01/26 08:16:11;;;;;;;117.30;40.83;;;;;2.30;102777.00;;;;10451517;28;20197;-78
2022/01/26 08:21:15;;;;;;;123.53;42.13;;;;;2.30;102793.00;;;;10454456;28;20194;-79
2022/01/26 08:26:24;;;;;;;111.80;42.17;;;;;2.30;102818.00;;;;10463498;28;20193;-79
2022/01/26 08:31:27;;;;;;;100.53;39.87;;;;;2.30;102825.00;;;;10448034;28;20586;-79
2022/01/26 08:36:29;;;;;;;113.27;38.80;;;;;2.30;102821.00;;;;10439869;28;20550;-79
2022/01/26 08:41:31;;;;;;;109.90;39.87;;;;;2.40;102815.00;;;;10460951;28;20201;-80
2022/01/26 08:46:33;;;;;;;106.43;41.23;;;;;2.40;102822.00;;;;10449510;28;20197;-79
2022/01/26 08:51:36;;;;;;;106.17;41.97;;;;;2.50;102808.00;;;;10448249;28;20552;-80
2022/01/26 08:56:38;;;;;;;117.47;42.67;;;;;2.50;102810.00;;;;10457746;28;20203;-79
2022/01/26 09:01:40;;;;;;;108.53;40.87;;;;;2.60;102815.00;;;;10479131;28;20573;-79
2022/01/26 09:06:58;;;;;;;99.83;37.10;;;;;2.60;102819.00;;;;10431670;28;20205;-79
2022/01/26 09:12:06;;;;;;;90.83;37.37;;;;;2.60;102832.00;;;;10432456;28;20283;-78
2022/01/26 09:17:11;;;;;;;102.30;41.20;;;;;2.70;102827.00;;;;10463793;28;20576;-79
2022/01/26 09:22:16;;;;;;;105.83;39.83;;;;;2.70;102816.00;;;;10480395;28;20212;-79
2022/01/26 09:27:18;;;;;;;108.97;40.90;;;;;2.80;102819.00;;;;10463867;28;20690;-79
2022/01/26 09:32:22;;;;;;;121.70;41.13;;;;;2.80;102834.00;;;;10480421;28;20202;-79
2022/01/26 09:37:24;;;;;;;98.17;39.27;;;;;2.80;102825.00;;;;10468348;28;20274;-79
2022/01/26 09:42:27;;;;;;;96.43;39.70;;;;;2.90;102823.00;;;;10443739;28;20186;-79
2022/01/26 09:47:28;;;;;;;100.77;39.00;;;;;2.90;102854.00;;;;10433996;28;20187;-79
2022/01/26 09:52:53;;;;;;;91.30;38.47;;;;;2.90;102857.00;;;;10474349;28;20189;-80
2022/01/26 09:57:58;;;;;;;88.17;38.80;;;;;3.00;102845.00;;;;10430368;28;20224;-79
2022/01/26 10:03:03;;;;;;;91.33;39.13;;;;;3.00;102847.00;;;;10462217;28;20201;-79
2022/01/26 10:18:32;;;;;;;99.67;41.00;;;;;3.20;102820.00;;;;10461804;28;20209;-79
2022/01/26 10:23:41;;;;;;;94.80;39.47;;;;;3.40;102819.00;;;;10494927;28;20189;-80
2022/01/26 10:28:51;;;;;;;85.77;37.07;;;;;3.50;102806.00;;;;10438601;28;20561;-79
2022/01/26 10:34:01;;;;;;;84.17;34.67;;;;;3.50;102808.00;;;;10418821;28;20648;-80
2022/01/26 10:39:08;;;;;;;82.30;35.10;;;;;3.60;102814.00;;;;10434385;28;20225;-79
2022/01/26 10:44:10;;;;;;;75.87;33.63;;;;;3.70;102811.00;;;;10433188;28;20226;-79
2022/01/26 10:49:19;;;;;;;70.73;32.47;;;;;3.70;102814.00;;;;10435807;28;20615;-80
2022/01/26 10:54:45;;;;;;;73.33;31.20;;;;;3.70;102788.00;;;;10432124;28;20368;-78
2022/01/26 10:59:49;;;;;;;64.97;31.37;;;;;3.80;102788.00;;;;10485773;28;20198;-79
2022/01/26 11:04:51;;;;;;;74.17;32.23;;;;;3.90;102794.00;;;;10488429;28;20201;-79
2022/01/26 11:09:54;;;;;;;75.97;32.50;;;;;4.00;102796.00;;;;10462082;28;20822;-79
2022/01/26 11:15:04;;;;;;;75.47;33.10;;;;;4.00;102799.00;;;;10456522;28;20210;-79
2022/01/26 11:20:34;;;;;;;69.50;31.97;;;;;3.90;102822.00;;;;10446821;28;20204;-80
2022/01/26 11:25:42;;;;;;;72.07;31.63;;;;;3.90;102842.00;;;;10484602;28;20236;-80
2022/01/26 11:30:45;;;;;;;74.70;33.40;;;;;4.00;102842.00;;;;10451311;28;20864;-79
2022/01/26 11:35:49;;;;;;;84.20;37.60;;;;;4.00;102826.00;;;;10439452;28;20206;-80
2022/01/26 11:46:12;;;;;;;84.43;36.50;;;;;3.90;102797.00;;;;10424391;28;20194;-79
2022/01/26 11:51:14;;;;;;;80.90;35.73;;;;;3.90;102807.00;;;;10458700;28;20232;-80
2022/01/26 11:56:20;;;;;;;81.70;37.80;;;;;3.90;102806.00;;;;10448879;28;20939;-80
2022/01/26 12:01:27;;;;;;;84.07;36.70;;;;;3.90;102800.00;;;;10482537;28;20212;-80
2022/01/26 12:06:35;;;;;;;76.57;35.40;;;;;3.90;102801.00;;;;10440290;28;20241;-80
2022/01/26 12:11:37;;;;;;;83.27;36.67;;;;;4.00;102777.00;;;;10448727;28;20210;-79
2022/01/26 12:16:44;;;;;;;78.67;36.13;;;;;4.10;102781.00;;;;10426343;28;20214;-80
2022/01/26 12:43:06;;;;;;;88.50;38.70;;;;;4.00;102760.00;;;;10481793;28;20197;-79
2022/01/26 12:48:29;;;;;;;82.60;37.03;;;;;4.00;102759.00;;;;10448112;28;20173;-80
2022/01/26 12:53:35;;;;;;;73.33;34.90;;;;;3.90;102765.00;;;;10448278;28;20189;-80
2022/01/26 12:58:39;;;;;;;81.43;37.37;;;;;4.00;102758.00;;;;10452252;28;20201;-80
2022/01/26 13:03:42;;;;;;;74.83;35.23;;;;;4.00;102757.00;;;;10431888;28;20201;-79
2022/01/26 13:08:45;;;;;;;83.20;36.57;;;;;4.00;102763.00;;;;10445901;28;20233;-79
2022/01/26 13:13:47;;;;;;;77.40;36.53;;;;;4.00;102765.00;;;;10421935;28;20202;-79
2022/01/26 13:24:25;;;;;;;70.97;32.83;;;;;3.90;102765.00;;;;10455581;28;20194;-79
2022/01/26 13:29:40;;;;;;;77.87;35.93;;;;;3.90;102760.00;;;;10421936;28;20629;-79
2022/01/26 13:45:22;;;;;;;79.57;34.87;;;;;4.00;102751.00;;;;10437834;28;20654;-79
2022/01/26 13:50:26;;;;;;;78.37;34.00;;;;;4.00;102741.00;;;;10421156;28;20194;-78
2022/01/26 14:00:55;;;;;;;78.57;32.77;;;;;3.70;102731.00;;;;10476224;28;20212;-79
2022/01/26 14:05:57;;;;;;;80.03;33.40;;;;;3.80;102736.00;;;;10426561;28;20239;-79
2022/01/26 14:11:01;;;;;;;83.33;33.67;;;;;3.80;102726.00;;;;10461681;28;20225;-79
2022/01/26 14:16:05;;;;;;;80.93;32.23;;;;;3.70;102725.00;;;;10461994;28;20263;-78
2022/01/26 14:21:22;;;;;;;90.73;35.13;;;;;3.70;102716.00;;;;10478665;28;20190;-79
2022/01/26 14:26:29;;;;;;;75.73;31.53;;;;;3.70;102717.00;;;;10464490;28;20616;-78
2022/01/26 14:31:50;;;;;;;68.40;30.43;;;;;3.70;102708.00;;;;10486774;28;20186;-79
2022/01/26 14:39:30;;;;;;;70.70;29.43;;;;;3.60;102711.00;;;;10453127;28;20216;-78
2022/01/26 14:53:40;;;;;;;68.63;27.87;;;;;3.70;102685.00;;;;10461200;28;20202;-79
2022/01/26 15:40:04;;;;;;;77.60;29.03;;;;;3.40;102675.00;;;;10415574;28;20202;-79
2022/01/26 15:58:13;;;;;;;75.57;30.07;;;;;3.30;102717.00;;;;10364955;28;20250;-79
2022/01/26 16:12:42;;;;;;;71.50;28.23;;;;;3.30;102697.00;;;;10453447;28;20217;-79
2022/01/26 16:35:38;;;;;;;69.83;28.63;;;;;3.10;102662.00;;;;10456630;28;20206;-79
2022/01/26 18:17:05;;;;;;;61.20;29.10;;;;;3.10;102654.00;;;;10446804;28;20217;-79
2022/01/26 18:32:42;;;;;;;62.97;30.27;;;;;3.20;102647.00;;;;10429969;28;20661;-79
2022/01/26 18:54:06;;;;;;;55.77;29.60;;;;;3.30;102642.00;;;;10452773;28;20197;-80
2022/01/26 18:59:10;;;;;;;60.33;29.67;;;;;3.30;102633.00;;;;10502503;28;20210;-80
2022/01/26 19:04:13;;;;;;;51.40;25.53;;;;;3.30;102626.00;;;;10468959;28;20201;-80
2022/01/26 19:09:18;;;;;;;54.50;28.13;;;;;3.30;102615.00;;;;10452504;28;20220;-80
2022/01/26 19:14:27;;;;;;;57.93;29.60;;;;;3.40;102604.00;;;;10469050;28;20883;-80
2022/01/26 19:24:59;;;;;;;59.03;30.37;;;;;3.50;102591.00;;;;10452007;28;20830;-80
2022/01/26 19:46:10;;;;;;;48.30;24.73;;;;;3.70;102588.00;;;;10451142;28;20204;-79
2022/01/26 19:51:13;;;;;;;50.00;26.43;;;;;3.70;102585.00;;;;10481204;28;20276;-80
2022/01/26 19:56:16;;;;;;;48.23;26.57;;;;;3.70;102600.00;;;;10483440;28;20684;-79
2022/01/26 20:01:18;;;;;;;47.40;24.67;;;;;3.70;102600.00;;;;10450057;28;20196;-79
2022/01/26 20:06:21;;;;;;;46.47;25.93;;;;;3.70;102607.00;;;;10465920;28;20202;-79
2022/01/26 20:12:00;;;;;;;46.43;26.07;;;;;3.70;102601.00;;;;10457423;28;20267;-79
2022/01/26 20:16:51;;;;;;;44.17;23.17;;;;;3.70;102597.00;;;;10424474;28;20210;-80
2022/01/26 20:21:53;;;;;;;42.33;23.17;;;;;3.70;102605.00;;;;10424210;28;20235;-79
2022/01/26 20:26:56;;;;;;;43.77;23.73;;;;;3.70;102607.00;;;;10456274;28;20194;-79
2022/01/26 20:31:58;;;;;;;41.70;23.27;;;;;3.70;102596.00;;;;10457985;28;20661;-78
2022/01/26 20:37:02;;;;;;;41.30;22.80;;;;;3.70;102612.00;;;;10456851;28;20206;-79
2022/01/26 20:42:04;;;;;;;41.57;23.40;;;;;3.70;102607.00;;;;10438773;28;20673;-79
2022/01/26 20:47:06;;;;;;;39.07;22.57;;;;;3.70;102600.00;;;;10471457;28;20189;-79
2022/01/26 20:52:08;;;;;;;39.43;23.07;;;;;3.70;102588.00;;;;10463980;28;20190;-79
2022/01/26 20:57:10;;;;;;;45.53;22.60;;;;;3.70;102586.00;;;;10464405;28;20575;-79
2022/01/26 21:02:12;;;;;;;43.07;23.63;;;;;3.70;102573.00;;;;10480441;28;20583;-79
2022/01/26 21:07:15;;;;;;;40.23;21.43;;;;;3.70;102552.00;;;;10463703;28;20220;-80
2022/01/26 21:12:17;;;;;;;43.00;22.17;;;;;3.70;102559.00;;;;10463584;28;20574;-80
2022/01/26 21:17:19;;;;;;;44.07;24.73;;;;;3.70;102545.00;;;;10480400;28;20217;-80
2022/01/26 21:22:22;;;;;;;39.40;22.93;;;;;3.70;102533.00;;;;10463496;28;20652;-79
2022/01/26 21:27:24;;;;;;;46.13;24.00;;;;;3.70;102530.00;;;;10462633;28;20672;-80
2022/01/26 21:32:35;;;;;;;42.77;22.93;;;;;3.70;102531.00;;;;10478051;28;20273;-80
2022/01/26 21:37:37;;;;;;;43.70;23.17;;;;;3.70;102520.00;;;;10478417;28;20209;-79
2022/01/26 21:42:39;;;;;;;40.43;22.87;;;;;3.70;102504.00;;;;10479565;28;20201;-80
2022/01/26 21:47:41;;;;;;;38.73;20.37;;;;;3.70;102494.00;;;;10446449;28;20196;-80
2022/01/26 21:52:44;;;;;;;41.97;23.27;;;;;3.80;102495.00;;;;10437897;28;20232;-80
2022/01/26 21:57:47;;;;;;;41.07;22.77;;;;;3.80;102485.00;;;;10442003;28;20232;-80
2022/01/26 22:02:51;;;;;;;46.10;22.00;;;;;3.80;102493.00;;;;10446573;28;20197;-79
2022/01/26 22:07:53;;;;;;;38.73;20.60;;;;;3.80;102485.00;;;;10438668;28;20216;-80
2022/01/26 22:12:56;;;;;;;38.40;20.23;;;;;3.80;102481.00;;;;10462301;28;20190;-79
2022/01/26 22:17:58;;;;;;;34.77;20.63;;;;;3.80;102483.00;;;;10479398;28;20220;-80
2022/01/26 22:23:04;;;;;;;39.47;19.83;;;;;3.90;102477.00;;;;10423167;28;20194;-79
2022/01/26 22:28:13;;;;;;;37.20;20.97;;;;;3.90;102485.00;;;;10447256;28;20207;-80
2022/01/26 22:33:14;;;;;;;32.80;19.53;;;;;3.90;102501.00;;;;10447976;28;20190;-79
2022/01/26 22:38:16;;;;;;;36.93;19.27;;;;;3.90;102489.00;;;;10461816;28;20249;-80
2022/01/26 22:43:18;;;;;;;34.63;18.90;;;;;3.90;102472.00;;;;10481221;28;20204;-80
2022/01/26 22:48:22;;;;;;;37.83;20.10;;;;;3.90;102488.00;;;;10442667;28;20221;-82
2022/01/26 22:53:24;;;;;;;37.43;18.57;;;;;4.00;102481.00;;;;10460913;28;20202;-82
2022/01/26 22:58:27;;;;;;;36.20;20.17;;;;;4.00;102493.00;;;;10474211;28;20215;-82
2022/01/26 23:03:32;;;;;;;35.17;19.07;;;;;4.00;102481.00;;;;10486616;28;20205;-80
2022/01/26 23:08:35;;;;;;;35.67;19.33;;;;;4.00;102478.00;;;;10453262;28;20240;-79
2022/01/26 23:13:38;;;;;;;35.67;20.13;;;;;4.00;102474.00;;;;10464723;28;20255;-80
2022/01/26 23:18:40;;;;;;;34.47;18.50;;;;;3.90;102463.00;;;;10468763;28;20228;-79
2022/01/26 23:23:44;;;;;;;34.87;19.70;;;;;4.00;102463.00;;;;10469830;28;20665;-82
